createdAt,value
2018-06-11T00:00:07.790Z,101237.88
2018-06-11T00:02:36.104Z,101239.20
2018-06-11T00:05:04.401Z,101243.77
2018-06-11T00:07:32.742Z,101243.63
2018-06-11T00:10:01.013Z,101243.77
2018-06-11T00:12:30.375Z,101243.23
2018-06-11T00:14:58.633Z,101239.95
2018-06-11T00:17:26.945Z,101243.42
2018-06-11T00:19:55.206Z,101251.31
2018-06-11T00:22:23.522Z,101255.34
2018-06-11T00:24:51.773Z,101253.24
2018-06-11T00:27:20.090Z,101249.45
2018-06-11T00:29:48.354Z,101244.31
2018-06-11T00:32:16.641Z,101229.17
2018-06-11T00:34:44.915Z,101231.77
2018-06-11T00:37:13.187Z,101230.70
2018-06-11T00:39:41.489Z,101234.33
2018-06-11T00:42:10.761Z,101233.66
2018-06-11T00:44:39.037Z,101229.99
2018-06-11T00:47:07.319Z,101234.84
2018-06-11T00:49:35.626Z,101244.02
2018-06-11T00:52:04.898Z,101250.85
2018-06-11T00:54:33.223Z,101256.38
2018-06-11T00:57:01.475Z,101260.84
2018-06-11T00:59:29.747Z,101259.38
2018-06-11T01:01:57.997Z,101264.75
2018-06-11T01:04:26.285Z,101267.66
2018-06-11T01:06:54.557Z,101276.31
2018-06-11T01:09:22.838Z,101277.93
2018-06-11T01:11:51.117Z,101284.84
2018-06-11T01:14:19.406Z,101275.45
2018-06-11T01:16:47.652Z,101287.56
2018-06-11T01:19:15.905Z,101282.44
2018-06-11T01:21:44.189Z,101277.16
2018-06-11T01:24:12.485Z,101280.08
2018-06-11T01:26:40.797Z,101275.88
2018-06-11T01:29:09.084Z,101272.62
2018-06-11T01:31:37.373Z,101264.83
2018-06-11T01:34:05.664Z,101258.30
2018-06-11T01:36:33.941Z,101257.34
2018-06-11T01:39:02.223Z,101252.62
2018-06-11T01:41:31.579Z,101257.89
2018-06-11T01:43:59.837Z,101259.62
2018-06-11T01:46:28.141Z,101256.92
2018-06-11T01:48:56.416Z,101248.05
2018-06-11T01:51:24.714Z,101252.00
2018-06-11T01:53:54.039Z,101247.88
2018-06-11T01:56:22.346Z,101248.36
2018-06-11T01:58:50.597Z,101247.52
2018-06-11T02:01:19.901Z,101241.84
2018-06-11T02:03:48.173Z,101237.03
2018-06-11T02:06:16.437Z,101231.92
2018-06-11T02:08:44.733Z,101232.91
2018-06-11T02:11:12.976Z,101240.52
2018-06-11T02:13:41.250Z,101240.77
2018-06-11T02:16:09.490Z,101243.50
2018-06-11T02:18:37.779Z,101237.17
2018-06-11T02:21:06.054Z,101241.66
2018-06-11T02:23:34.385Z,101239.94
2018-06-11T02:26:02.716Z,101247.70
2018-06-11T02:28:31.008Z,101244.09
2018-06-11T02:30:59.313Z,101242.75
2018-06-11T02:33:27.618Z,101240.60
2018-06-11T02:35:55.894Z,101242.02
2018-06-11T02:38:24.185Z,101245.91
2018-06-11T02:40:52.453Z,101231.95
2018-06-11T02:43:20.768Z,101234.41
2018-06-11T02:45:49.044Z,101235.08
2018-06-11T02:48:17.346Z,101231.45
2018-06-11T02:50:45.622Z,101227.63
2018-06-11T02:53:13.922Z,101234.20
2018-06-11T02:55:42.207Z,101224.13
2018-06-11T02:58:10.506Z,101215.35
2018-06-11T03:00:38.820Z,101215.50
2018-06-11T03:03:07.101Z,101217.03
2018-06-11T03:05:35.389Z,101221.27
2018-06-11T03:08:03.763Z,101217.06
2018-06-11T03:10:32.066Z,101215.02
2018-06-11T03:13:00.336Z,101211.05
2018-06-11T03:15:28.664Z,101207.70
2018-06-11T03:17:56.938Z,101208.95
2018-06-11T03:20:25.232Z,101206.70
2018-06-11T03:22:53.570Z,101204.47
2018-06-11T03:25:21.888Z,101209.73
2018-06-11T03:27:50.159Z,101214.48
2018-06-11T03:30:18.469Z,101211.11
2018-06-11T03:32:46.733Z,101210.55
2018-06-11T03:35:15.007Z,101205.63
2018-06-11T03:37:43.299Z,101216.20
2018-06-11T03:40:11.558Z,101218.53
2018-06-11T03:42:39.861Z,101221.28
2018-06-11T03:45:08.129Z,101229.01
2018-06-11T03:47:36.413Z,101234.56
2018-06-11T03:50:04.737Z,101229.80
2018-06-11T03:52:33.077Z,101237.13
2018-06-11T03:55:01.369Z,101244.25
2018-06-11T03:57:29.689Z,101250.28
2018-06-11T03:59:59.019Z,101251.29
2018-06-11T04:02:27.338Z,101248.11
2018-06-11T04:04:55.613Z,101252.98
2018-06-11T04:07:25.010Z,101249.28
2018-06-11T04:09:53.280Z,101264.46
2018-06-11T04:12:21.569Z,101268.34
2018-06-11T04:14:50.153Z,101266.46
2018-06-11T04:17:18.446Z,101271.42
2018-06-11T04:19:46.713Z,101274.28
2018-06-11T04:22:15.053Z,101268.16
2018-06-11T04:24:43.345Z,101267.67
2018-06-11T04:27:11.621Z,101268.50
2018-06-11T04:29:39.941Z,101267.67
2018-06-11T04:32:08.203Z,101269.30
2018-06-11T04:34:37.558Z,101274.94
2018-06-11T04:37:05.873Z,101276.06
2018-06-11T04:39:34.184Z,101269.43
2018-06-11T04:42:02.465Z,101271.64
2018-06-11T04:44:30.765Z,101279.28
2018-06-11T04:46:59.037Z,101286.95
2018-06-11T04:49:27.349Z,101282.72
2018-06-11T04:51:55.630Z,101287.41
2018-06-11T04:54:23.956Z,101292.36
2018-06-11T04:56:52.226Z,101288.73
2018-06-11T04:59:20.545Z,101288.11
2018-06-11T05:01:48.833Z,101291.34
2018-06-11T05:04:17.153Z,101289.12
2018-06-11T05:06:46.440Z,101286.08
2018-06-11T05:09:14.704Z,101288.77
2018-06-11T05:11:43.007Z,101277.09
2018-06-11T05:14:11.292Z,101266.11
2018-06-11T05:16:41.623Z,101275.86
2018-06-11T05:19:09.889Z,101267.63
2018-06-11T05:21:38.181Z,101269.72
2018-06-11T05:24:06.498Z,101263.66
2018-06-11T05:26:34.782Z,101264.78
2018-06-11T05:29:03.093Z,101263.51
2018-06-11T05:31:31.401Z,101273.38
2018-06-11T05:33:59.687Z,101268.29
2018-06-11T05:36:28.012Z,101269.61
2018-06-11T05:38:57.316Z,101275.47
2018-06-11T05:41:25.622Z,101271.25
2018-06-11T05:43:54.877Z,101261.41
2018-06-11T05:46:23.189Z,101270.02
2018-06-11T05:48:51.469Z,101264.77
2018-06-11T05:51:20.731Z,101262.61
2018-06-11T05:53:49.053Z,101263.31
2018-06-11T05:56:17.401Z,101261.84
2018-06-11T05:58:45.699Z,101257.84
2018-06-11T06:01:13.992Z,101260.98
2018-06-11T06:03:42.331Z,101261.45
2018-06-11T06:06:10.607Z,101259.32
2018-06-11T06:08:38.950Z,101258.70
2018-06-11T06:11:07.197Z,101254.20
2018-06-11T06:13:35.510Z,101261.98
2018-06-11T06:16:03.769Z,101262.27
2018-06-11T06:18:32.061Z,101261.64
2018-06-11T06:21:03.948Z,101263.16
2018-06-11T06:23:32.445Z,101270.59
2018-06-11T06:26:01.841Z,101268.74
2018-06-11T06:28:30.222Z,101264.63
2018-06-11T06:30:58.493Z,101269.75
2018-06-11T06:33:27.809Z,101269.10
2018-06-11T06:35:56.083Z,101268.98
2018-06-11T06:38:24.361Z,101266.30
2018-06-11T06:40:52.652Z,101274.69
2018-06-11T06:43:22.201Z,101285.98
2018-06-11T06:45:50.489Z,101282.39
2018-06-11T06:48:18.769Z,101280.70
2018-06-11T06:50:47.073Z,101275.67
2018-06-11T06:53:15.483Z,101273.08
2018-06-11T06:55:43.815Z,101271.19
2018-06-11T06:58:12.077Z,101273.27
2018-06-11T07:00:40.345Z,101283.06
2018-06-11T07:03:08.617Z,101274.23
2018-06-11T07:05:36.905Z,101279.22
2018-06-11T07:08:05.226Z,101273.20
2018-06-11T07:10:33.534Z,101275.16
2018-06-11T07:13:01.942Z,101275.23
2018-06-11T07:21:11.878Z,101271.77
2018-06-11T07:23:40.177Z,101278.90
2018-06-11T07:26:08.481Z,101279.88
2018-06-11T07:28:36.754Z,101272.02
2018-06-11T07:31:05.030Z,101272.97
2018-06-11T07:33:33.328Z,101264.28
2018-06-11T07:36:01.590Z,101260.12
2018-06-11T07:38:31.004Z,101266.83
2018-06-11T07:40:59.318Z,101264.43
2018-06-11T07:43:27.637Z,101258.80
2018-06-11T07:45:55.913Z,101264.58
2018-06-11T07:48:24.216Z,101265.95
2018-06-11T07:50:52.512Z,101268.95
2018-06-11T07:53:20.853Z,101274.26
2018-06-11T07:55:49.129Z,101271.60
2018-06-11T07:58:18.413Z,101262.95
2018-06-11T08:00:46.707Z,101257.36
2018-06-11T08:03:15.045Z,101256.20
2018-06-11T08:05:43.326Z,101260.13
2018-06-11T08:08:11.641Z,101268.81
2018-06-11T08:10:39.941Z,101266.12
2018-06-11T08:13:08.202Z,101243.91
2018-06-11T08:15:36.505Z,101248.50
2018-06-11T08:18:04.842Z,101232.73
2018-06-11T08:20:33.177Z,101262.81
2018-06-11T08:23:01.471Z,101263.02
2018-06-11T08:25:29.811Z,101267.95
2018-06-11T08:27:58.080Z,101262.59
2018-06-11T08:30:26.429Z,101276.85
2018-06-11T08:32:55.697Z,101269.94
2018-06-11T08:35:23.996Z,101258.50
2018-06-11T08:37:52.261Z,101275.45
2018-06-11T08:40:20.551Z,101274.45
2018-06-11T08:42:48.810Z,101277.22
2018-06-11T08:45:17.101Z,101276.73
2018-06-11T08:47:45.453Z,101276.71
2018-06-11T08:50:13.759Z,101265.06
2018-06-11T08:52:42.092Z,101288.00
2018-06-11T08:55:11.355Z,101265.95
2018-06-11T08:57:39.702Z,101285.16
2018-06-11T09:00:08.288Z,101290.43
2018-06-11T09:02:36.597Z,101284.67
2018-06-11T09:05:05.129Z,101294.94
2018-06-11T09:07:33.549Z,101270.72
2018-06-11T09:10:01.832Z,101268.23
2018-06-11T09:12:30.125Z,101251.52
2018-06-11T09:14:58.453Z,101264.23
2018-06-11T09:17:26.845Z,101261.22
2018-06-11T09:19:55.226Z,101257.36
2018-06-11T09:22:23.542Z,101260.87
2018-06-11T09:24:51.888Z,101271.03
2018-06-11T09:27:20.225Z,101263.84
2018-06-11T09:29:48.482Z,101249.30
2018-06-11T09:32:16.909Z,101247.08
2018-06-11T09:34:45.177Z,101270.14
2018-06-11T09:37:13.606Z,101255.48
2018-06-11T09:39:41.877Z,101253.77
2018-06-11T09:42:11.229Z,101263.87
2018-06-11T09:44:39.611Z,101273.47
2018-06-11T09:47:07.889Z,101271.92
2018-06-11T09:49:36.187Z,101247.23
2018-06-11T09:52:04.483Z,101275.92
2018-06-11T09:54:32.816Z,101273.55
2018-06-11T09:57:01.093Z,101262.91
2018-06-11T09:59:29.401Z,101250.52
2018-06-11T10:01:57.673Z,101254.47
2018-06-11T10:04:25.989Z,101236.28
2018-06-11T10:06:54.257Z,101262.34
2018-06-11T10:09:22.573Z,101263.39
2018-06-11T10:11:51.906Z,101265.27
2018-06-11T10:14:20.209Z,101275.78
2018-06-11T10:16:48.489Z,101287.20
2018-06-11T10:19:16.784Z,101279.48
2018-06-11T10:21:45.053Z,101269.84
2018-06-11T10:24:13.357Z,101263.85
2018-06-11T10:26:41.689Z,101267.45
2018-06-11T10:29:10.105Z,101273.42
2018-06-11T10:31:38.381Z,101279.19
2018-06-11T10:34:06.693Z,101284.96
2018-06-11T10:36:34.969Z,101269.73
2018-06-11T10:39:03.855Z,101270.78
2018-06-11T10:41:33.181Z,101290.96
2018-06-11T10:44:01.498Z,101282.50
2018-06-11T10:46:29.789Z,101272.00
2018-06-11T10:48:58.071Z,101277.05
2018-06-11T10:51:26.393Z,101273.03
2018-06-11T10:53:54.649Z,101270.75
2018-06-11T10:56:22.969Z,101276.39
2018-06-11T10:58:51.346Z,101284.34
2018-06-11T11:01:20.789Z,101272.80
2018-06-11T11:03:49.053Z,101255.36
2018-06-11T11:06:21.177Z,101281.00
2018-06-11T11:08:49.490Z,101280.19
2018-06-11T11:11:17.742Z,101286.39
2018-06-11T11:13:46.228Z,101280.24
2018-06-11T11:16:14.533Z,101266.08
2018-06-11T11:18:42.805Z,101268.84
2018-06-11T11:21:11.073Z,101287.05
2018-06-11T11:23:39.466Z,101272.76
2018-06-11T11:26:07.756Z,101265.72
2018-06-11T11:28:37.145Z,101271.97
2018-06-11T11:31:06.465Z,101270.25
2018-06-11T11:33:35.932Z,101273.30
2018-06-11T11:36:04.209Z,101286.83
2018-06-11T11:38:32.511Z,101281.53
2018-06-11T11:41:00.879Z,101293.96
2018-06-11T11:43:29.253Z,101291.66
2018-06-11T11:45:57.611Z,101292.74
2018-06-11T11:48:25.903Z,101258.64
2018-06-11T11:50:54.268Z,101278.14
2018-06-11T11:53:22.580Z,101269.13
2018-06-11T11:55:51.865Z,101279.83
2018-06-11T11:58:20.249Z,101275.74
2018-06-11T12:00:49.579Z,101268.95
2018-06-11T12:03:17.945Z,101266.19
2018-06-11T12:05:46.411Z,101266.33
2018-06-11T12:08:14.848Z,101260.95
2018-06-11T12:10:43.164Z,101279.14
2018-06-11T12:13:11.781Z,101266.01
2018-06-11T12:15:40.245Z,101261.55
2018-06-11T12:18:08.553Z,101260.67
2018-06-11T12:20:36.836Z,101273.73
2018-06-11T12:23:05.120Z,101260.37
2018-06-11T12:25:33.437Z,101256.93
2018-06-11T12:28:02.721Z,101268.66
2018-06-11T12:30:31.117Z,101270.45
2018-06-11T12:32:59.389Z,101267.69
2018-06-11T12:35:27.705Z,101262.03
2018-06-11T12:37:56.018Z,101261.05
2018-06-11T12:40:24.346Z,101249.60
2018-06-11T12:42:52.676Z,101260.40
2018-06-11T12:45:22.041Z,101241.13
2018-06-11T12:47:50.389Z,101257.70
2018-06-11T12:50:18.822Z,101265.17
2018-06-11T12:52:47.133Z,101209.83
2018-06-11T12:55:15.492Z,101233.83
2018-06-11T12:57:44.821Z,101249.67
2018-06-11T13:00:13.245Z,101237.09
2018-06-11T13:02:41.582Z,101241.65
2018-06-11T13:05:09.858Z,101246.94
2018-06-11T13:07:38.220Z,101250.86
2018-06-11T13:10:06.609Z,101236.89
2018-06-11T13:12:34.983Z,101241.02
2018-06-11T13:15:03.247Z,101239.83
2018-06-11T13:17:31.536Z,101240.25
2018-06-11T13:19:59.801Z,101227.19
2018-06-11T13:22:28.097Z,101239.75
2018-06-11T13:24:56.373Z,101229.58
2018-06-11T13:27:24.673Z,101226.49
2018-06-11T13:29:52.925Z,101216.31
2018-06-11T13:32:22.408Z,101231.19
2018-06-11T13:34:50.798Z,101230.69
2018-06-11T13:37:19.060Z,101216.55
2018-06-11T13:39:47.353Z,101232.97
2018-06-11T13:42:15.633Z,101233.23
2018-06-11T13:44:44.041Z,101224.13
2018-06-11T13:47:12.371Z,101233.83
2018-06-11T13:49:40.790Z,101225.09
2018-06-11T13:52:09.150Z,101234.59
2018-06-11T13:54:37.634Z,101220.87
2018-06-11T13:57:05.882Z,101218.03
2018-06-11T13:59:34.367Z,101207.53
2018-06-11T14:02:02.753Z,101213.95
2018-06-11T14:04:31.194Z,101195.87
2018-06-11T14:07:00.517Z,101214.44
2018-06-11T14:09:32.205Z,101203.63
2018-06-11T14:12:00.534Z,101204.86
2018-06-11T14:14:28.817Z,101192.67
2018-06-11T14:16:57.181Z,101198.84
2018-06-11T14:19:25.504Z,101200.93
2018-06-11T14:21:53.873Z,101199.23
2018-06-11T14:24:22.171Z,101197.92
2018-06-11T14:26:50.636Z,101198.40
2018-06-11T14:29:18.896Z,101184.38
2018-06-11T14:32:50.452Z,101200.30
2018-06-11T14:35:22.849Z,101167.17
2018-06-11T14:37:51.201Z,101184.02
2018-06-11T14:40:19.593Z,101169.69
2018-06-11T14:42:47.969Z,101155.90
2018-06-11T14:45:17.312Z,101161.44
2018-06-11T14:47:45.589Z,101149.86
2018-06-11T14:50:13.929Z,101163.66
2018-06-11T14:52:42.356Z,101168.53
2018-06-11T14:55:10.822Z,101164.50
2018-06-11T14:57:40.631Z,101163.14
2018-06-11T15:00:12.324Z,101166.15
2018-06-11T15:08:46.981Z,101147.67
2018-06-11T15:11:16.552Z,101139.48
2018-06-11T15:13:48.550Z,101138.28
2018-06-11T15:16:17.315Z,101135.95
2018-06-11T15:22:06.984Z,101137.38
2018-06-11T15:27:27.863Z,101139.13
2018-06-11T15:29:56.418Z,101125.63
2018-06-11T15:32:25.109Z,101144.64
2018-06-11T15:41:23.175Z,101114.58
2018-06-11T15:48:46.873Z,101113.00
2018-06-11T15:51:22.813Z,101109.84
2018-06-11T15:53:53.563Z,101116.75
2018-06-11T15:59:30.376Z,101114.75
2018-06-11T16:02:13.436Z,101116.16
2018-06-11T16:05:02.247Z,101117.66
2018-06-11T16:07:30.545Z,101122.95
2018-06-11T16:10:12.375Z,101109.30
2018-06-11T16:12:40.641Z,101112.71
2018-06-11T16:15:08.944Z,101126.00
2018-06-11T16:17:37.355Z,101123.84
2018-06-11T16:20:05.923Z,101132.02
2018-06-11T16:25:29.150Z,101144.45
2018-06-11T16:27:57.785Z,101132.05
2018-06-11T16:30:31.602Z,101148.41
2018-06-11T16:33:06.632Z,101140.77
2018-06-11T16:35:48.608Z,101135.28
2018-06-11T16:38:21.261Z,101141.33
2018-06-11T16:40:59.209Z,101136.15
2018-06-11T16:43:29.638Z,101138.05
2018-06-11T16:45:57.893Z,101126.15
2018-06-11T16:48:27.125Z,101139.42
2018-06-11T16:50:55.486Z,101141.02
2018-06-11T16:53:23.808Z,101135.00
2018-06-11T16:55:53.252Z,101147.81
2018-06-11T16:58:21.541Z,101136.95
2018-06-11T17:00:49.845Z,101126.92
2018-06-11T17:03:18.202Z,101145.41
2018-06-11T17:05:46.781Z,101130.31
2018-06-11T17:08:15.118Z,101125.44
2018-06-11T17:10:46.055Z,101134.09
2018-06-11T17:13:14.363Z,101130.70
2018-06-11T17:15:42.720Z,101127.42
2018-06-11T17:18:11.033Z,101125.73
2018-06-11T17:20:39.367Z,101123.20
2018-06-11T17:23:09.804Z,101129.33
2018-06-11T17:25:38.197Z,101130.28
2018-06-11T17:28:06.913Z,101111.55
2018-06-11T17:30:35.223Z,101117.53
2018-06-11T17:33:04.557Z,101132.58
2018-06-11T17:35:32.858Z,101135.11
2018-06-11T17:38:01.173Z,101138.52
2018-06-11T17:40:29.500Z,101126.72
2018-06-11T17:42:57.913Z,101129.05
2018-06-11T17:45:26.269Z,101121.89
2018-06-11T17:47:54.670Z,101121.78
2018-06-11T17:50:22.987Z,101135.57
2018-06-11T17:52:52.318Z,101125.39
2018-06-11T17:55:20.613Z,101126.84
2018-06-11T17:57:50.065Z,101120.56
2018-06-11T18:00:18.376Z,101125.82
2018-06-11T18:02:46.737Z,101136.05
2018-06-11T18:05:15.046Z,101130.39
2018-06-11T18:07:43.393Z,101132.77
2018-06-11T18:10:11.791Z,101132.75
2018-06-11T18:12:40.082Z,101130.23
2018-06-11T18:15:08.381Z,101132.41
2018-06-11T18:17:36.726Z,101124.77
2018-06-11T18:20:05.098Z,101118.95
2018-06-11T18:22:33.490Z,101114.83
2018-06-11T18:25:01.840Z,101103.89
2018-06-11T18:27:30.241Z,101110.47
2018-06-11T18:29:58.598Z,101099.75
2018-06-11T18:32:27.921Z,101099.86
2018-06-11T18:34:56.197Z,101092.90
2018-06-11T18:37:24.582Z,101102.94
2018-06-11T18:39:52.865Z,101119.94
2018-06-11T18:42:21.169Z,101114.25
2018-06-11T18:44:49.462Z,101098.61
2018-06-11T18:47:17.793Z,101112.42
2018-06-11T18:49:46.128Z,101109.61
2018-06-11T18:52:14.446Z,101115.06
2018-06-11T18:54:42.782Z,101116.63
2018-06-11T18:57:11.109Z,101110.52
2018-06-11T18:59:39.473Z,101113.89
2018-06-11T19:02:07.918Z,101106.23
2018-06-11T19:04:36.211Z,101108.71
2018-06-11T19:07:04.578Z,101111.52
2018-06-11T19:09:32.892Z,101112.53
2018-06-11T19:12:01.256Z,101103.55
2018-06-11T19:14:29.649Z,101111.54
2018-06-11T19:16:58.019Z,101108.62
2018-06-11T19:19:26.408Z,101123.48
2018-06-11T19:21:54.759Z,101091.16
2018-06-11T19:24:23.177Z,101099.75
2018-06-11T19:26:51.525Z,101097.33
2018-06-11T19:29:19.938Z,101103.66
2018-06-11T19:31:48.289Z,101101.17
2018-06-11T19:34:18.626Z,101111.84
2018-06-11T19:36:46.918Z,101099.20
2018-06-11T19:39:15.273Z,101112.07
2018-06-11T19:41:43.643Z,101099.98
2018-06-11T19:44:12.021Z,101092.61
2018-06-11T19:46:40.413Z,101101.03
2018-06-11T19:49:09.804Z,101098.53
2018-06-11T19:51:38.179Z,101102.23
2018-06-11T19:54:07.541Z,101106.80
2018-06-11T19:56:35.920Z,101107.50
2018-06-11T19:59:05.244Z,101113.44
2018-06-11T20:01:33.654Z,101099.41
2018-06-11T20:04:02.107Z,101101.89
2018-06-11T20:06:30.515Z,101109.97
2018-06-11T20:09:00.491Z,101103.22
2018-06-11T20:11:28.894Z,101100.67
2018-06-11T20:13:57.277Z,101094.07
2018-06-11T20:16:25.669Z,101098.03
2018-06-11T20:18:54.023Z,101102.31
2018-06-11T20:24:12.668Z,101094.32
2018-06-11T20:26:40.970Z,101101.09
2018-06-11T20:29:09.258Z,101102.91
2018-06-11T20:31:37.585Z,101111.89
2018-06-11T20:34:05.866Z,101105.97
2018-06-11T20:36:34.172Z,101107.59
2018-06-11T20:39:03.586Z,101132.44
2018-06-11T20:41:32.997Z,101126.47
2018-06-11T20:44:01.278Z,101138.63
2018-06-11T20:46:30.721Z,101141.89
2018-06-11T20:48:59.001Z,101140.72
2018-06-11T20:51:27.297Z,101138.08
2018-06-11T20:53:55.601Z,101146.61
2018-06-11T20:56:29.655Z,101143.63
2018-06-11T20:59:00.951Z,101144.44
2018-06-11T21:01:29.351Z,101157.47
2018-06-11T21:03:59.818Z,101155.66
2018-06-11T21:06:28.258Z,101160.48
2018-06-11T21:08:56.643Z,101154.57
2018-06-11T21:11:24.918Z,101152.64
2018-06-11T21:13:54.362Z,101151.08
2018-06-11T21:16:22.661Z,101151.08
2018-06-11T21:18:51.413Z,101151.06
2018-06-11T21:21:19.743Z,101144.77
2018-06-11T21:23:48.109Z,101140.33
2018-06-11T21:26:16.512Z,101137.10
2018-06-11T21:28:44.960Z,101141.83
2018-06-11T21:31:13.335Z,101156.80
2018-06-11T21:33:41.793Z,101151.77
2018-06-11T21:36:10.123Z,101149.28
2018-06-11T21:38:38.417Z,101151.36
2018-06-11T21:41:14.991Z,101155.08
2018-06-11T21:43:44.403Z,101151.90
2018-06-11T21:46:15.317Z,101160.89
2018-06-11T21:48:45.287Z,101160.34
2018-06-11T21:51:17.292Z,101170.63
2018-06-11T21:53:46.749Z,101159.83
2018-06-11T21:56:16.178Z,101165.67
2018-06-11T21:58:44.787Z,101154.40
2018-06-11T22:01:13.242Z,101150.54
2018-06-11T22:03:41.739Z,101151.37
2018-06-11T22:06:12.090Z,101159.22
2018-06-11T22:08:40.436Z,101149.94
2018-06-11T22:11:08.802Z,101145.95
2018-06-11T22:13:38.095Z,101147.88
2018-06-11T22:16:06.529Z,101145.58
2018-06-11T22:18:34.805Z,101135.67
2018-06-11T22:21:03.091Z,101129.38
2018-06-11T22:23:31.419Z,101121.85
2018-06-11T22:25:59.743Z,101120.53
2018-06-11T22:28:28.055Z,101119.48
2018-06-11T22:30:56.352Z,101120.83
2018-06-11T22:33:24.669Z,101119.19
2018-06-11T22:35:53.989Z,101119.27
2018-06-11T22:38:22.293Z,101120.13
2018-06-11T22:40:51.604Z,101114.67
2018-06-11T22:43:19.937Z,101114.95
2018-06-11T22:45:48.225Z,101108.60
2018-06-11T22:48:16.543Z,101105.94
2018-06-11T22:50:44.884Z,101097.84
2018-06-11T22:53:13.254Z,101106.23
2018-06-11T22:55:41.538Z,101109.22
2018-06-11T22:58:09.882Z,101113.90
2018-06-11T23:00:38.161Z,101118.84
2018-06-11T23:03:06.522Z,101120.89
2018-06-11T23:05:34.824Z,101119.91
2018-06-11T23:08:03.136Z,101114.09
2018-06-11T23:10:31.448Z,101117.52
2018-06-11T23:12:59.984Z,101120.41
2018-06-11T23:15:28.330Z,101117.79
2018-06-11T23:17:56.618Z,101115.10
2018-06-11T23:20:25.942Z,101114.09
2018-06-11T23:22:54.205Z,101112.95
2018-06-11T23:25:22.571Z,101116.33
2018-06-11T23:27:50.878Z,101104.86
2018-06-11T23:30:20.181Z,101115.56
2018-06-11T23:32:48.452Z,101102.41
2018-06-11T23:35:16.745Z,101105.59
2018-06-11T23:37:46.129Z,101110.25
2018-06-11T23:40:14.493Z,101099.20
2018-06-11T23:42:43.798Z,101104.91
2018-06-11T23:45:13.113Z,101108.99
2018-06-11T23:47:41.453Z,101105.02
2018-06-11T23:50:13.053Z,101094.81
2018-06-11T23:52:41.765Z,101094.30
2018-06-11T23:55:11.115Z,101091.18
2018-06-11T23:57:39.418Z,101083.89
